sensor_id;sensor_type;location;lat;lon;timestamp;P1;durP1;ratioP1;P2;durP2;ratioP2
10041;SDS011;5061;49.068;12.058;2024-02-26T00:03:00;11.20;;;5.80;;
10041;SDS011;5061;49.068;12.058;2024-02-26T00:06:21;9.40;;;5.40;;
10041;SDS011;5061;49.068;12.058;2024-02-26T00:09:41;12.43;;;6.27;;
10041;SDS011;5061;49.068;12.058;2024-02-26T00:13:02;8.20;;;5.10;;
10041;SDS011;5061;49.068;12.058;2024-02-26T00:16:23;10.53;;;5.07;;
10041;SDS011;5061;49.068;12.058;2024-02-26T00:19:44;12.27;;;5.37;;
10041;SDS011;5061;49.068;12.058;2024-02-26T00:23:04;11.03;;;5.90;;
10041;SDS011;5061;49.068;12.058;2024-02-26T00:26:25;11.03;;;5.70;;
10041;SDS011;5061;49.068;12.058;2024-02-26T00:29:45;9.63;;;4.97;;
10041;SDS011;5061;49.068;12.058;2024-02-26T00:33:06;11.90;;;5.60;;
10041;SDS011;5061;49.068;12.058;2024-02-26T00:36:27;10.27;;;5.90;;
10041;SDS011;5061;49.068;12.058;2024-02-26T00:39:47;8.30;;;5.13;;
10041;SDS011;5061;49.068;12.058;2024-02-26T00:43:08;9.23;;;4.80;;
10041;SDS011;5061;49.068;12.058;2024-02-26T00:46:28;11.27;;;5.90;;
10041;SDS011;5061;49.068;12.058;2024-02-26T00:49:49;12.10;;;5.60;;
10041;SDS011;5061;49.068;12.058;2024-02-26T00:53:10;10.93;;;5.87;;
10041;SDS011;5061;49.068;12.058;2024-02-26T00:56:30;9.03;;;5.90;;
10041;SDS011;5061;49.068;12.058;2024-02-26T00:59:51;13.00;;;7.20;;
10041;SDS011;5061;49.068;12.058;2024-02-26T01:03:11;14.00;;;7.27;;
10041;SDS011;5061;49.068;12.058;2024-02-26T01:06:32;13.87;;;6.40;;
10041;SDS011;5061;49.068;12.058;2024-02-26T01:09:53;11.40;;;6.23;;
10041;SDS011;5061;49.068;12.058;2024-02-26T01:13:13;8.50;;;5.10;;
10041;SDS011;5061;49.068;12.058;2024-02-26T01:16:34;13.63;;;6.97;;
10041;SDS011;5061;49.068;12.058;2024-02-26T01:19:55;13.73;;;6.27;;
10041;SDS011;5061;49.068;12.058;2024-02-26T01:23:16;12.00;;;6.30;;
10041;SDS011;5061;49.068;12.058;2024-02-26T01:26:36;11.90;;;5.80;;
10041;SDS011;5061;49.068;12.058;2024-02-26T01:29:57;9.73;;;5.47;;
10041;SDS011;5061;49.068;12.058;2024-02-26T01:33:17;11.57;;;5.37;;
10041;SDS011;5061;49.068;12.058;2024-02-26T01:36:38;12.10;;;5.77;;
10041;SDS011;5061;49.068;12.058;2024-02-26T01:39:59;9.67;;;5.53;;
10041;SDS011;5061;49.068;12.058;2024-02-26T01:43:19;11.70;;;5.60;;
10041;SDS011;5061;49.068;12.058;2024-02-26T01:46:40;10.40;;;5.10;;
10041;SDS011;5061;49.068;12.058;2024-02-26T01:50:01;8.90;;;5.23;;
10041;SDS011;5061;49.068;12.058;2024-02-26T01:53:21;8.37;;;4.90;;
10041;SDS011;5061;49.068;12.058;2024-02-26T01:56:42;9.43;;;5.17;;
10041;SDS011;5061;49.068;12.058;2024-02-26T02:00:03;9.53;;;5.57;;
10041;SDS011;5061;49.068;12.058;2024-02-26T02:03:25;9.20;;;4.97;;
10041;SDS011;5061;49.068;12.058;2024-02-26T02:06:46;8.63;;;4.87;;
10041;SDS011;5061;49.068;12.058;2024-02-26T02:10:08;9.33;;;4.30;;
10041;SDS011;5061;49.068;12.058;2024-02-26T02:13:29;10.43;;;5.07;;
10041;SDS011;5061;49.068;12.058;2024-02-26T02:16:50;7.10;;;4.10;;
10041;SDS011;5061;49.068;12.058;2024-02-26T02:20:17;7.80;;;4.50;;
10041;SDS011;5061;49.068;12.058;2024-02-26T02:23:38;6.90;;;3.80;;
10041;SDS011;5061;49.068;12.058;2024-02-26T02:26:58;10.07;;;4.20;;
10041;SDS011;5061;49.068;12.058;2024-02-26T02:30:20;7.07;;;3.77;;
10041;SDS011;5061;49.068;12.058;2024-02-26T02:33:43;7.33;;;4.97;;
10041;SDS011;5061;49.068;12.058;2024-02-26T02:37:04;7.73;;;4.50;;
10041;SDS011;5061;49.068;12.058;2024-02-26T02:40:25;7.83;;;4.10;;
10041;SDS011;5061;49.068;12.058;2024-02-26T02:43:46;6.83;;;4.40;;
10041;SDS011;5061;49.068;12.058;2024-02-26T02:47:06;6.13;;;3.77;;
10041;SDS011;5061;49.068;12.058;2024-02-26T02:50:27;4.80;;;3.20;;
10041;SDS011;5061;49.068;12.058;2024-02-26T02:53:49;7.70;;;4.10;;
10041;SDS011;5061;49.068;12.058;2024-02-26T02:57:09;4.13;;;2.97;;
10041;SDS011;5061;49.068;12.058;2024-02-26T03:00:30;3.37;;;2.77;;
10041;SDS011;5061;49.068;12.058;2024-02-26T03:03:50;5.40;;;3.50;;
10041;SDS011;5061;49.068;12.058;2024-02-26T03:07:11;4.70;;;2.93;;
10041;SDS011;5061;49.068;12.058;2024-02-26T03:10:32;4.40;;;3.50;;
10041;SDS011;5061;49.068;12.058;2024-02-26T03:13:52;5.40;;;3.47;;
10041;SDS011;5061;49.068;12.058;2024-02-26T03:17:13;5.87;;;3.50;;
10041;SDS011;5061;49.068;12.058;2024-02-26T03:20:34;5.60;;;3.40;;
10041;SDS011;5061;49.068;12.058;2024-02-26T03:23:54;8.10;;;5.07;;
10041;SDS011;5061;49.068;12.058;2024-02-26T03:27:15;9.80;;;5.17;;
10041;SDS011;5061;49.068;12.058;2024-02-26T03:30:36;6.30;;;4.93;;
10041;SDS011;5061;49.068;12.058;2024-02-26T03:33:56;7.47;;;4.23;;
10041;SDS011;5061;49.068;12.058;2024-02-26T03:37:17;8.30;;;4.07;;
10041;SDS011;5061;49.068;12.058;2024-02-26T03:40:38;7.80;;;4.17;;
10041;SDS011;5061;49.068;12.058;2024-02-26T03:43:58;4.60;;;3.10;;
10041;SDS011;5061;49.068;12.058;2024-02-26T03:47:19;9.63;;;4.83;;
10041;SDS011;5061;49.068;12.058;2024-02-26T03:50:40;7.27;;;3.70;;
10041;SDS011;5061;49.068;12.058;2024-02-26T03:54:01;5.80;;;3.00;;
10041;SDS011;5061;49.068;12.058;2024-02-26T03:57:22;5.00;;;2.70;;
10041;SDS011;5061;49.068;12.058;2024-02-26T04:00:43;8.70;;;3.30;;
10041;SDS011;5061;49.068;12.058;2024-02-26T04:04:05;6.27;;;2.80;;
10041;SDS011;5061;49.068;12.058;2024-02-26T04:07:26;4.67;;;2.80;;
10041;SDS011;5061;49.068;12.058;2024-02-26T04:10:47;3.53;;;2.83;;
10041;SDS011;5061;49.068;12.058;2024-02-26T04:14:07;4.00;;;2.50;;
10041;SDS011;5061;49.068;12.058;2024-02-26T04:17:28;4.83;;;2.80;;
10041;SDS011;5061;49.068;12.058;2024-02-26T04:20:50;5.20;;;2.90;;
10041;SDS011;5061;49.068;12.058;2024-02-26T04:24:11;2.80;;;2.07;;
10041;SDS011;5061;49.068;12.058;2024-02-26T04:27:32;7.53;;;2.40;;
10041;SDS011;5061;49.068;12.058;2024-02-26T04:30:52;4.50;;;2.30;;
10041;SDS011;5061;49.068;12.058;2024-02-26T04:34:13;3.23;;;2.50;;
10041;SDS011;5061;49.068;12.058;2024-02-26T04:37:34;3.60;;;2.80;;
10041;SDS011;5061;49.068;12.058;2024-02-26T04:40:54;2.83;;;2.43;;
10041;SDS011;5061;49.068;12.058;2024-02-26T04:44:15;3.47;;;2.57;;
10041;SDS011;5061;49.068;12.058;2024-02-26T04:47:36;2.83;;;1.97;;
10041;SDS011;5061;49.068;12.058;2024-02-26T04:50:56;3.00;;;2.00;;
10041;SDS011;5061;49.068;12.058;2024-02-26T04:54:17;3.60;;;2.47;;
10041;SDS011;5061;49.068;12.058;2024-02-26T04:57:37;4.43;;;2.40;;
10041;SDS011;5061;49.068;12.058;2024-02-26T05:00:58;2.50;;;2.00;;
10041;SDS011;5061;49.068;12.058;2024-02-26T05:04:18;3.53;;;2.43;;
10041;SDS011;5061;49.068;12.058;2024-02-26T05:07:40;3.20;;;2.40;;
10041;SDS011;5061;49.068;12.058;2024-02-26T05:11:02;3.50;;;2.60;;
10041;SDS011;5061;49.068;12.058;2024-02-26T05:14:23;5.60;;;3.10;;
10041;SDS011;5061;49.068;12.058;2024-02-26T05:17:44;4.13;;;2.80;;
10041;SDS011;5061;49.068;12.058;2024-02-26T05:21:05;4.37;;;3.00;;
10041;SDS011;5061;49.068;12.058;2024-02-26T05:24:25;4.87;;;3.67;;
10041;SDS011;5061;49.068;12.058;2024-02-26T05:27:46;3.73;;;3.03;;
10041;SDS011;5061;49.068;12.058;2024-02-26T05:31:07;6.13;;;2.30;;
10041;SDS011;5061;49.068;12.058;2024-02-26T05:34:27;3.07;;;2.30;;
10041;SDS011;5061;49.068;12.058;2024-02-26T05:37:50;2.77;;;2.40;;
10041;SDS011;5061;49.068;12.058;2024-02-26T05:41:10;7.20;;;3.33;;
10041;SDS011;5061;49.068;12.058;2024-02-26T05:44:31;6.80;;;4.20;;
10041;SDS011;5061;49.068;12.058;2024-02-26T05:47:51;6.40;;;3.80;;
10041;SDS011;5061;49.068;12.058;2024-02-26T05:51:12;5.17;;;3.10;;
10041;SDS011;5061;49.068;12.058;2024-02-26T05:54:33;6.07;;;3.80;;
10041;SDS011;5061;49.068;12.058;2024-02-26T05:57:53;6.63;;;3.93;;
10041;SDS011;5061;49.068;12.058;2024-02-26T06:01:15;5.90;;;3.27;;
10041;SDS011;5061;49.068;12.058;2024-02-26T06:04:39;4.17;;;2.90;;
10041;SDS011;5061;49.068;12.058;2024-02-26T06:07:59;4.97;;;3.27;;
10041;SDS011;5061;49.068;12.058;2024-02-26T06:11:20;4.10;;;2.30;;
10041;SDS011;5061;49.068;12.058;2024-02-26T06:14:42;5.30;;;2.77;;
10041;SDS011;5061;49.068;12.058;2024-02-26T06:18:03;4.60;;;2.97;;
10041;SDS011;5061;49.068;12.058;2024-02-26T06:21:24;4.47;;;2.63;;
10041;SDS011;5061;49.068;12.058;2024-02-26T06:24:45;4.40;;;3.07;;
10041;SDS011;5061;49.068;12.058;2024-02-26T06:28:09;4.87;;;3.10;;
10041;SDS011;5061;49.068;12.058;2024-02-26T06:31:58;5.70;;;3.03;;
10041;SDS011;5061;49.068;12.058;2024-02-26T06:35:19;5.00;;;2.70;;
10041;SDS011;5061;49.068;12.058;2024-02-26T06:42:28;5.20;;;2.70;;
10041;SDS011;5061;49.068;12.058;2024-02-26T06:45:49;3.80;;;2.50;;
10041;SDS011;5061;49.068;12.058;2024-02-26T06:49:10;5.97;;;2.83;;
10041;SDS011;5061;49.068;12.058;2024-02-26T06:52:30;4.90;;;2.87;;
10041;SDS011;5061;49.068;12.058;2024-02-26T06:55:51;7.00;;;2.93;;
10041;SDS011;5061;49.068;12.058;2024-02-26T06:59:11;6.87;;;3.60;;
10041;SDS011;5061;49.068;12.058;2024-02-26T07:02:32;5.97;;;4.60;;
10041;SDS011;5061;49.068;12.058;2024-02-26T07:05:52;4.87;;;3.33;;
10041;SDS011;5061;49.068;12.058;2024-02-26T07:09:13;7.50;;;3.83;;
10041;SDS011;5061;49.068;12.058;2024-02-26T07:12:34;7.40;;;4.27;;
10041;SDS011;5061;49.068;12.058;2024-02-26T07:15:55;6.80;;;4.27;;
10041;SDS011;5061;49.068;12.058;2024-02-26T07:19:15;3.60;;;2.80;;
10041;SDS011;5061;49.068;12.058;2024-02-26T07:22:36;4.70;;;3.20;;
10041;SDS011;5061;49.068;12.058;2024-02-26T07:25:57;4.63;;;2.90;;
10041;SDS011;5061;49.068;12.058;2024-02-26T07:29:18;6.57;;;3.40;;
10041;SDS011;5061;49.068;12.058;2024-02-26T07:32:38;4.57;;;3.00;;
10041;SDS011;5061;49.068;12.058;2024-02-26T07:35:59;6.10;;;2.80;;
10041;SDS011;5061;49.068;12.058;2024-02-26T07:39:19;4.03;;;3.20;;
10041;SDS011;5061;49.068;12.058;2024-02-26T07:42:40;5.17;;;2.90;;
10041;SDS011;5061;49.068;12.058;2024-02-26T07:46:01;8.37;;;3.10;;
10041;SDS011;5061;49.068;12.058;2024-02-26T07:49:21;5.47;;;3.30;;
10041;SDS011;5061;49.068;12.058;2024-02-26T07:52:42;5.20;;;3.27;;
10041;SDS011;5061;49.068;12.058;2024-02-26T07:56:03;5.97;;;3.67;;
10041;SDS011;5061;49.068;12.058;2024-02-26T07:59:23;5.20;;;3.47;;
10041;SDS011;5061;49.068;12.058;2024-02-26T08:02:44;4.33;;;3.10;;
10041;SDS011;5061;49.068;12.058;2024-02-26T08:06:05;5.63;;;3.97;;
10041;SDS011;5061;49.068;12.058;2024-02-26T08:09:25;6.50;;;4.03;;
10041;SDS011;5061;49.068;12.058;2024-02-26T08:12:46;5.37;;;3.23;;
10041;SDS011;5061;49.068;12.058;2024-02-26T08:16:07;7.83;;;4.20;;
10041;SDS011;5061;49.068;12.058;2024-02-26T08:19:27;4.90;;;3.63;;
10041;SDS011;5061;49.068;12.058;2024-02-26T08:22:48;5.07;;;3.50;;
10041;SDS011;5061;49.068;12.058;2024-02-26T08:26:09;5.60;;;3.20;;
10041;SDS011;5061;49.068;12.058;2024-02-26T08:29:31;5.30;;;2.90;;
10041;SDS011;5061;49.068;12.058;2024-02-26T08:32:51;3.73;;;2.43;;
10041;SDS011;5061;49.068;12.058;2024-02-26T08:36:12;3.83;;;2.30;;
10041;SDS011;5061;49.068;12.058;2024-02-26T08:39:33;4.70;;;2.97;;
10041;SDS011;5061;49.068;12.058;2024-02-26T08:42:53;4.67;;;2.93;;
10041;SDS011;5061;49.068;12.058;2024-02-26T08:46:15;3.60;;;2.30;;
10041;SDS011;5061;49.068;12.058;2024-02-26T08:49:35;4.93;;;2.90;;
10041;SDS011;5061;49.068;12.058;2024-02-26T08:52:56;3.57;;;2.77;;
10041;SDS011;5061;49.068;12.058;2024-02-26T08:56:17;4.50;;;3.67;;
10041;SDS011;5061;49.068;12.058;2024-02-26T08:59:37;3.53;;;2.37;;
10041;SDS011;5061;49.068;12.058;2024-02-26T09:02:58;4.43;;;2.60;;
10041;SDS011;5061;49.068;12.058;2024-02-26T09:06:19;3.20;;;2.87;;
10041;SDS011;5061;49.068;12.058;2024-02-26T09:09:40;2.73;;;2.27;;
10041;SDS011;5061;49.068;12.058;2024-02-26T09:13:00;3.00;;;2.47;;
10041;SDS011;5061;49.068;12.058;2024-02-26T09:16:21;6.33;;;2.83;;
10041;SDS011;5061;49.068;12.058;2024-02-26T09:19:42;4.47;;;3.10;;
10041;SDS011;5061;49.068;12.058;2024-02-26T09:23:04;4.23;;;2.93;;
10041;SDS011;5061;49.068;12.058;2024-02-26T09:26:24;5.10;;;3.33;;
10041;SDS011;5061;49.068;12.058;2024-02-26T09:29:45;6.63;;;3.23;;
10041;SDS011;5061;49.068;12.058;2024-02-26T09:33:06;5.17;;;4.00;;
10041;SDS011;5061;49.068;12.058;2024-02-26T09:36:27;4.20;;;2.90;;
10041;SDS011;5061;49.068;12.058;2024-02-26T09:39:47;5.43;;;3.10;;
10041;SDS011;5061;49.068;12.058;2024-02-26T09:43:08;5.20;;;3.47;;
10041;SDS011;5061;49.068;12.058;2024-02-26T09:46:35;4.27;;;2.73;;
10041;SDS011;5061;49.068;12.058;2024-02-26T09:49:56;5.20;;;3.43;;
10041;SDS011;5061;49.068;12.058;2024-02-26T09:53:18;5.77;;;3.73;;
10041;SDS011;5061;49.068;12.058;2024-02-26T09:56:41;5.23;;;3.40;;
10041;SDS011;5061;49.068;12.058;2024-02-26T10:00:03;3.07;;;2.70;;
10041;SDS011;5061;49.068;12.058;2024-02-26T10:03:38;4.57;;;2.67;;
10041;SDS011;5061;49.068;12.058;2024-02-26T10:07:00;5.20;;;3.90;;
10041;SDS011;5061;49.068;12.058;2024-02-26T10:10:23;6.23;;;4.17;;
10041;SDS011;5061;49.068;12.058;2024-02-26T10:13:45;6.20;;;3.50;;
10041;SDS011;5061;49.068;12.058;2024-02-26T10:17:07;6.03;;;3.70;;
10041;SDS011;5061;49.068;12.058;2024-02-26T10:20:28;4.50;;;3.47;;
10041;SDS011;5061;49.068;12.058;2024-02-26T10:23:51;3.77;;;2.47;;
10041;SDS011;5061;49.068;12.058;2024-02-26T10:27:12;5.13;;;2.73;;
10041;SDS011;5061;49.068;12.058;2024-02-26T10:30:36;3.93;;;2.90;;
10041;SDS011;5061;49.068;12.058;2024-02-26T10:33:57;4.10;;;2.83;;
10041;SDS011;5061;49.068;12.058;2024-02-26T10:37:18;5.57;;;2.87;;
10041;SDS011;5061;49.068;12.058;2024-02-26T10:40:38;4.13;;;3.00;;
10041;SDS011;5061;49.068;12.058;2024-02-26T10:43:59;3.93;;;2.37;;
10041;SDS011;5061;49.068;12.058;2024-02-26T10:47:19;2.77;;;2.20;;
10041;SDS011;5061;49.068;12.058;2024-02-26T10:50:41;3.03;;;2.33;;
10041;SDS011;5061;49.068;12.058;2024-02-26T10:54:01;3.10;;;2.03;;
10041;SDS011;5061;49.068;12.058;2024-02-26T10:57:27;3.70;;;2.47;;
10041;SDS011;5061;49.068;12.058;2024-02-26T11:00:52;2.83;;;1.93;;
10041;SDS011;5061;49.068;12.058;2024-02-26T11:04:16;3.70;;;2.20;;
10041;SDS011;5061;49.068;12.058;2024-02-26T11:07:38;3.50;;;2.10;;
10041;SDS011;5061;49.068;12.058;2024-02-26T11:11:01;2.80;;;2.10;;
10041;SDS011;5061;49.068;12.058;2024-02-26T11:14:22;3.30;;;2.23;;
10041;SDS011;5061;49.068;12.058;2024-02-26T11:17:46;3.20;;;2.17;;
10041;SDS011;5061;49.068;12.058;2024-02-26T11:21:07;2.03;;;1.40;;
10041;SDS011;5061;49.068;12.058;2024-02-26T11:24:29;3.60;;;1.70;;
10041;SDS011;5061;49.068;12.058;2024-02-26T11:27:54;2.00;;;1.77;;
10041;SDS011;5061;49.068;12.058;2024-02-26T11:31:17;4.80;;;3.00;;
10041;SDS011;5061;49.068;12.058;2024-02-26T11:34:46;3.33;;;2.60;;
10041;SDS011;5061;49.068;12.058;2024-02-26T11:38:06;3.13;;;1.97;;
10041;SDS011;5061;49.068;12.058;2024-02-26T11:41:27;4.63;;;2.40;;
10041;SDS011;5061;49.068;12.058;2024-02-26T11:44:48;2.20;;;1.80;;
10041;SDS011;5061;49.068;12.058;2024-02-26T11:48:12;2.90;;;2.13;;
10041;SDS011;5061;49.068;12.058;2024-02-26T11:51:38;3.23;;;2.30;;
10041;SDS011;5061;49.068;12.058;2024-02-26T11:55:02;3.17;;;2.40;;
10041;SDS011;5061;49.068;12.058;2024-02-26T11:58:23;5.67;;;2.63;;
10041;SDS011;5061;49.068;12.058;2024-02-26T12:01:45;3.03;;;2.07;;
10041;SDS011;5061;49.068;12.058;2024-02-26T12:05:16;6.90;;;2.53;;
10041;SDS011;5061;49.068;12.058;2024-02-26T12:08:39;2.40;;;1.50;;
10041;SDS011;5061;49.068;12.058;2024-02-26T12:12:03;1.27;;;1.10;;
10041;SDS011;5061;49.068;12.058;2024-02-26T12:15:38;3.53;;;1.60;;
10041;SDS011;5061;49.068;12.058;2024-02-26T12:19:02;2.80;;;1.53;;
10041;SDS011;5061;49.068;12.058;2024-02-26T12:22:25;2.00;;;1.40;;
10041;SDS011;5061;49.068;12.058;2024-02-26T12:25:47;5.10;;;1.57;;
10041;SDS011;5061;49.068;12.058;2024-02-26T12:29:08;2.43;;;1.60;;
10041;SDS011;5061;49.068;12.058;2024-02-26T12:32:29;2.13;;;1.70;;
10041;SDS011;5061;49.068;12.058;2024-02-26T12:35:50;3.00;;;1.50;;
10041;SDS011;5061;49.068;12.058;2024-02-26T12:39:11;2.10;;;1.73;;
10041;SDS011;5061;49.068;12.058;2024-02-26T12:42:32;1.90;;;1.73;;
10041;SDS011;5061;49.068;12.058;2024-02-26T12:45:59;3.80;;;2.20;;
10041;SDS011;5061;49.068;12.058;2024-02-26T12:49:23;4.60;;;1.93;;
10041;SDS011;5061;49.068;12.058;2024-02-26T12:52:46;2.20;;;1.63;;
10041;SDS011;5061;49.068;12.058;2024-02-26T12:56:07;1.67;;;1.30;;
10041;SDS011;5061;49.068;12.058;2024-02-26T12:59:30;3.03;;;2.00;;
10041;SDS011;5061;49.068;12.058;2024-02-26T13:02:51;4.10;;;2.00;;
10041;SDS011;5061;49.068;12.058;2024-02-26T13:06:14;2.20;;;1.40;;
10041;SDS011;5061;49.068;12.058;2024-02-26T13:09:35;1.40;;;1.20;;
10041;SDS011;5061;49.068;12.058;2024-02-26T13:12:56;1.33;;;1.10;;
10041;SDS011;5061;49.068;12.058;2024-02-26T13:16:17;1.50;;;1.40;;
10041;SDS011;5061;49.068;12.058;2024-02-26T13:19:48;1.87;;;1.47;;
10041;SDS011;5061;49.068;12.058;2024-02-26T13:23:12;2.33;;;1.70;;
10041;SDS011;5061;49.068;12.058;2024-02-26T13:26:33;1.57;;;1.00;;
10041;SDS011;5061;49.068;12.058;2024-02-26T13:30:09;1.40;;;1.17;;
10041;SDS011;5061;49.068;12.058;2024-02-26T13:33:31;2.00;;;1.20;;
10041;SDS011;5061;49.068;12.058;2024-02-26T13:36:55;4.07;;;1.90;;
10041;SDS011;5061;49.068;12.058;2024-02-26T13:40:16;2.03;;;1.63;;
10041;SDS011;5061;49.068;12.058;2024-02-26T13:43:37;4.10;;;2.20;;
10041;SDS011;5061;49.068;12.058;2024-02-26T13:46:58;4.80;;;2.70;;
10041;SDS011;5061;49.068;12.058;2024-02-26T13:50:19;3.43;;;2.50;;
10041;SDS011;5061;49.068;12.058;2024-02-26T13:53:43;2.70;;;2.07;;
10041;SDS011;5061;49.068;12.058;2024-02-26T13:57:03;3.40;;;2.50;;
10041;SDS011;5061;49.068;12.058;2024-02-26T14:00:25;3.00;;;2.40;;
10041;SDS011;5061;49.068;12.058;2024-02-26T14:03:46;2.87;;;2.10;;
10041;SDS011;5061;49.068;12.058;2024-02-26T14:07:07;3.50;;;2.40;;
10041;SDS011;5061;49.068;12.058;2024-02-26T14:10:29;3.80;;;2.53;;
10041;SDS011;5061;49.068;12.058;2024-02-26T14:13:51;4.23;;;3.10;;
10041;SDS011;5061;49.068;12.058;2024-02-26T14:17:12;5.77;;;3.27;;
10041;SDS011;5061;49.068;12.058;2024-02-26T14:20:33;5.10;;;2.90;;
10041;SDS011;5061;49.068;12.058;2024-02-26T14:23:55;6.10;;;3.50;;
10041;SDS011;5061;49.068;12.058;2024-02-26T14:27:16;5.30;;;3.17;;
10041;SDS011;5061;49.068;12.058;2024-02-26T14:30:37;3.53;;;2.63;;
10041;SDS011;5061;49.068;12.058;2024-02-26T14:33:57;4.40;;;3.03;;
10041;SDS011;5061;49.068;12.058;2024-02-26T14:37:21;4.50;;;3.40;;
10041;SDS011;5061;49.068;12.058;2024-02-26T14:40:44;4.50;;;3.47;;
10041;SDS011;5061;49.068;12.058;2024-02-26T14:44:05;8.70;;;3.67;;
10041;SDS011;5061;49.068;12.058;2024-02-26T14:47:26;5.00;;;3.47;;
10041;SDS011;5061;49.068;12.058;2024-02-26T14:50:47;4.20;;;3.23;;
10041;SDS011;5061;49.068;12.058;2024-02-26T14:54:07;4.20;;;3.13;;
10041;SDS011;5061;49.068;12.058;2024-02-26T14:57:28;5.10;;;3.50;;
10041;SDS011;5061;49.068;12.058;2024-02-26T15:00:48;3.80;;;3.10;;
10041;SDS011;5061;49.068;12.058;2024-02-26T15:04:09;7.73;;;3.80;;
10041;SDS011;5061;49.068;12.058;2024-02-26T15:07:30;4.23;;;3.27;;
10041;SDS011;5061;49.068;12.058;2024-02-26T15:10:50;5.70;;;4.33;;
10041;SDS011;5061;49.068;12.058;2024-02-26T15:14:11;6.13;;;4.10;;
10041;SDS011;5061;49.068;12.058;2024-02-26T15:17:32;7.80;;;4.13;;
10041;SDS011;5061;49.068;12.058;2024-02-26T15:20:54;7.00;;;3.83;;
10041;SDS011;5061;49.068;12.058;2024-02-26T15:24:15;4.47;;;3.30;;
10041;SDS011;5061;49.068;12.058;2024-02-26T15:27:37;4.83;;;4.13;;
10041;SDS011;5061;49.068;12.058;2024-02-26T15:30:57;5.40;;;3.93;;
10041;SDS011;5061;49.068;12.058;2024-02-26T15:34:18;5.73;;;4.10;;
10041;SDS011;5061;49.068;12.058;2024-02-26T15:37:38;6.30;;;3.80;;
10041;SDS011;5061;49.068;12.058;2024-02-26T15:40:59;4.77;;;3.77;;
10041;SDS011;5061;49.068;12.058;2024-02-26T15:44:20;4.90;;;3.40;;
10041;SDS011;5061;49.068;12.058;2024-02-26T15:47:41;3.93;;;3.10;;
10041;SDS011;5061;49.068;12.058;2024-02-26T15:51:02;4.50;;;3.33;;
10041;SDS011;5061;49.068;12.058;2024-02-26T15:54:23;4.17;;;3.17;;
10041;SDS011;5061;49.068;12.058;2024-02-26T15:57:44;6.73;;;3.90;;
10041;SDS011;5061;49.068;12.058;2024-02-26T16:01:05;5.63;;;3.70;;
10041;SDS011;5061;49.068;12.058;2024-02-26T16:04:25;7.60;;;4.03;;
10041;SDS011;5061;49.068;12.058;2024-02-26T16:07:48;6.23;;;4.10;;
10041;SDS011;5061;49.068;12.058;2024-02-26T16:11:13;5.43;;;3.70;;
10041;SDS011;5061;49.068;12.058;2024-02-26T16:14:49;7.27;;;3.77;;
10041;SDS011;5061;49.068;12.058;2024-02-26T16:18:10;6.10;;;4.20;;
10041;SDS011;5061;49.068;12.058;2024-02-26T16:21:31;7.07;;;4.43;;
10041;SDS011;5061;49.068;12.058;2024-02-26T16:24:51;4.93;;;3.67;;
10041;SDS011;5061;49.068;12.058;2024-02-26T16:28:12;9.13;;;5.30;;
10041;SDS011;5061;49.068;12.058;2024-02-26T16:31:33;6.83;;;4.70;;
10041;SDS011;5061;49.068;12.058;2024-02-26T16:34:54;7.10;;;4.47;;
10041;SDS011;5061;49.068;12.058;2024-02-26T16:38:14;6.83;;;4.80;;
10041;SDS011;5061;49.068;12.058;2024-02-26T16:41:35;7.90;;;5.00;;
10041;SDS011;5061;49.068;12.058;2024-02-26T16:44:55;6.50;;;4.30;;
10041;SDS011;5061;49.068;12.058;2024-02-26T16:48:16;7.23;;;4.30;;
10041;SDS011;5061;49.068;12.058;2024-02-26T16:51:38;6.93;;;4.70;;
10041;SDS011;5061;49.068;12.058;2024-02-26T16:54:58;8.97;;;4.87;;
10041;SDS011;5061;49.068;12.058;2024-02-26T16:58:19;8.03;;;4.30;;
10041;SDS011;5061;49.068;12.058;2024-02-26T17:01:46;6.90;;;4.77;;
10041;SDS011;5061;49.068;12.058;2024-02-26T17:05:07;6.70;;;5.10;;
10041;SDS011;5061;49.068;12.058;2024-02-26T17:08:30;10.80;;;5.97;;
10041;SDS011;5061;49.068;12.058;2024-02-26T17:11:53;9.13;;;5.50;;
10041;SDS011;5061;49.068;12.058;2024-02-26T17:15:14;8.97;;;5.80;;
10041;SDS011;5061;49.068;12.058;2024-02-26T17:18:35;7.23;;;5.20;;
10041;SDS011;5061;49.068;12.058;2024-02-26T17:21:55;12.80;;;6.97;;
10041;SDS011;5061;49.068;12.058;2024-02-26T17:25:16;10.30;;;6.87;;
10041;SDS011;5061;49.068;12.058;2024-02-26T17:28:37;10.73;;;6.57;;
10041;SDS011;5061;49.068;12.058;2024-02-26T17:32:02;9.50;;;6.10;;
10041;SDS011;5061;49.068;12.058;2024-02-26T17:35:23;11.87;;;6.57;;
10041;SDS011;5061;49.068;12.058;2024-02-26T17:38:44;9.60;;;5.97;;
10041;SDS011;5061;49.068;12.058;2024-02-26T17:42:06;12.30;;;6.23;;
10041;SDS011;5061;49.068;12.058;2024-02-26T17:45:27;11.77;;;6.73;;
10041;SDS011;5061;49.068;12.058;2024-02-26T17:48:49;11.20;;;6.53;;
10041;SDS011;5061;49.068;12.058;2024-02-26T17:52:09;12.10;;;6.47;;
10041;SDS011;5061;49.068;12.058;2024-02-26T17:55:30;11.77;;;6.43;;
10041;SDS011;5061;49.068;12.058;2024-02-26T17:58:50;9.13;;;5.87;;
10041;SDS011;5061;49.068;12.058;2024-02-26T18:02:11;9.83;;;6.00;;
10041;SDS011;5061;49.068;12.058;2024-02-26T18:05:32;13.17;;;6.73;;
10041;SDS011;5061;49.068;12.058;2024-02-26T18:08:52;9.30;;;5.53;;
10041;SDS011;5061;49.068;12.058;2024-02-26T18:12:13;8.97;;;6.07;;
10041;SDS011;5061;49.068;12.058;2024-02-26T18:15:34;10.50;;;6.30;;
10041;SDS011;5061;49.068;12.058;2024-02-26T18:18:54;12.90;;;7.17;;
10041;SDS011;5061;49.068;12.058;2024-02-26T18:22:15;9.43;;;5.93;;
10041;SDS011;5061;49.068;12.058;2024-02-26T18:25:35;11.33;;;6.23;;
10041;SDS011;5061;49.068;12.058;2024-02-26T18:28:56;10.73;;;5.77;;
10041;SDS011;5061;49.068;12.058;2024-02-26T18:32:17;11.27;;;6.97;;
10041;SDS011;5061;49.068;12.058;2024-02-26T18:35:37;12.93;;;7.67;;
10041;SDS011;5061;49.068;12.058;2024-02-26T18:38:58;10.83;;;6.23;;
10041;SDS011;5061;49.068;12.058;2024-02-26T18:42:19;10.33;;;6.50;;
10041;SDS011;5061;49.068;12.058;2024-02-26T18:45:40;10.23;;;6.10;;
10041;SDS011;5061;49.068;12.058;2024-02-26T18:49:02;8.93;;;5.97;;
10041;SDS011;5061;49.068;12.058;2024-02-26T18:52:23;8.90;;;5.77;;
10041;SDS011;5061;49.068;12.058;2024-02-26T18:55:43;12.83;;;7.60;;
10041;SDS011;5061;49.068;12.058;2024-02-26T18:59:05;13.90;;;6.70;;
10041;SDS011;5061;49.068;12.058;2024-02-26T19:02:28;9.80;;;6.40;;
10041;SDS011;5061;49.068;12.058;2024-02-26T19:05:49;10.50;;;6.63;;
10041;SDS011;5061;49.068;12.058;2024-02-26T19:09:09;7.17;;;5.17;;
10041;SDS011;5061;49.068;12.058;2024-02-26T19:12:30;10.30;;;6.20;;
10041;SDS011;5061;49.068;12.058;2024-02-26T19:15:51;7.70;;;5.30;;
10041;SDS011;5061;49.068;12.058;2024-02-26T19:19:11;8.87;;;5.83;;
10041;SDS011;5061;49.068;12.058;2024-02-26T19:22:33;9.87;;;6.20;;
10041;SDS011;5061;49.068;12.058;2024-02-26T19:25:54;9.60;;;5.00;;
10041;SDS011;5061;49.068;12.058;2024-02-26T19:29:14;11.83;;;6.63;;
10041;SDS011;5061;49.068;12.058;2024-02-26T19:32:35;10.23;;;5.43;;
10041;SDS011;5061;49.068;12.058;2024-02-26T19:35:55;10.63;;;6.50;;
10041;SDS011;5061;49.068;12.058;2024-02-26T19:39:16;10.87;;;6.17;;
10041;SDS011;5061;49.068;12.058;2024-02-26T19:42:37;14.07;;;6.67;;
10041;SDS011;5061;49.068;12.058;2024-02-26T19:45:58;9.43;;;5.97;;
10041;SDS011;5061;49.068;12.058;2024-02-26T19:49:18;9.77;;;6.30;;
10041;SDS011;5061;49.068;12.058;2024-02-26T19:52:39;9.50;;;6.37;;
10041;SDS011;5061;49.068;12.058;2024-02-26T19:55:59;12.93;;;7.90;;
10041;SDS011;5061;49.068;12.058;2024-02-26T19:59:21;8.87;;;6.07;;
10041;SDS011;5061;49.068;12.058;2024-02-26T20:02:41;8.80;;;5.73;;
10041;SDS011;5061;49.068;12.058;2024-02-26T20:06:02;8.90;;;5.57;;
10041;SDS011;5061;49.068;12.058;2024-02-26T20:09:23;12.23;;;6.97;;
10041;SDS011;5061;49.068;12.058;2024-02-26T20:12:47;15.03;;;7.73;;
10041;SDS011;5061;49.068;12.058;2024-02-26T20:16:08;10.03;;;6.30;;